Ryoshin Maru — JD2464 — position and weather

sailwx.info

Track history (hours):
 
Tides and Currents Weather Stations Pressure Air Temp Water Temp Dewpoint Dewpoint Depression Visibility Wind Speed Wind Dir Waves Ship Positions

Ryoshin Maru

Last reported at 2017-Sep-23 23:15 UTC. Time now 2017-Sep-24 15:51 UTC.
Position N 34°37' E 134°57'.

Length 60 m; draft 3.5 m.

Type: Tanker. MMSI: 431000263.

Date/timePositionNaut miles runAvg speedWind from/ knotsBaromVisibWave heightAir tempDewpointWater temp
2017-Sep-23 23:15N 34°37' E 134°57'312.5
2017-Sep-23 23:01N 34°37' E 135°01'510.3
2017-Sep-23 22:30N 34°33' E 135°05'612.7
2017-Sep-23 22:00N 34°27' E 135°03'712.0
2017-Sep-23 21:25N 34°20' E 135°01'510.2
2017-Sep-23 20:56N 34°15' E 134°59'4 8.1
2017-Sep-23 20:29N 34°12' E 134°60'510.3
2017-Sep-23 20:01N 34°07' E 135°00'  
2017-Sep-20 22:29N 34°41' E 134°50'5 6.0
2017-Sep-20 21:37N 34°37' E 134°54'2 7.4
2017-Sep-20 21:21N 34°37' E 134°56'4 8.3
2017-Sep-20 20:50N 34°37' E 135°01'3 9.9
2017-Sep-20 20:30N 34°35' E 135°05'511.0
2017-Sep-20 20:00N 34°30' E 135°04'1612.0
2017-Sep-20 18:42N 34°15' E 134°60'210.9
2017-Sep-20 18:29N 34°13' E 134°60'612.0
2017-Sep-20 17:59N 34°07' E 135°01'  
2017-Sep-14 22:35N 34°41' E 134°50'110.0
2017-Sep-14 22:28N 34°41' E 134°48'0 0.1
2017-Sep-14 20:41N 34°41' E 134°48'0 0.0
2017-Sep-14 20:29N 34°41' E 134°48'0 0.0
2017-Sep-14 19:59N 34°41' E 134°48'0 0.0
2017-Sep-14 19:17N 34°41' E 134°48'0 0.0
2017-Sep-14 18:59N 34°41' E 134°48'0 0.0
2017-Sep-14 18:29N 34°41' E 134°48'0 0.0
2017-Sep-14 17:23N 34°41' E 134°48'  
Track history (hours):
 
Tides and Currents Weather Stations Pressure Air Temp Water Temp Dewpoint Dewpoint Depression Visibility Wind Speed Wind Dir Waves Ship Positions

Ryoshin Maru

Last reported at 2017-Sep-23 23:15 UTC. Time now 2017-Sep-24 15:51 UTC.
Position N 34°37' E 134°57'.

Length 60 m; draft 3.5 m.

Type: Tanker. MMSI: 431000263.

Date/timePositionNaut miles runAvg speedWind from/ knotsBaromVisibWave heightAir tempDewpointWater temp
2017-Sep-23 23:15N 34°37' E 134°57'312.5
2017-Sep-23 23:01N 34°37' E 135°01'510.3
2017-Sep-23 22:30N 34°33' E 135°05'612.7
2017-Sep-23 22:00N 34°27' E 135°03'712.0
2017-Sep-23 21:25N 34°20' E 135°01'510.2
2017-Sep-23 20:56N 34°15' E 134°59'4 8.1
2017-Sep-23 20:29N 34°12' E 134°60'510.3
2017-Sep-23 20:01N 34°07' E 135°00'  
2017-Sep-20 22:29N 34°41' E 134°50'5 6.0
2017-Sep-20 21:37N 34°37' E 134°54'2 7.4
2017-Sep-20 21:21N 34°37' E 134°56'4 8.3
2017-Sep-20 20:50N 34°37' E 135°01'3 9.9
2017-Sep-20 20:30N 34°35' E 135°05'511.0
2017-Sep-20 20:00N 34°30' E 135°04'1612.0
2017-Sep-20 18:42N 34°15' E 134°60'210.9
2017-Sep-20 18:29N 34°13' E 134°60'612.0
2017-Sep-20 17:59N 34°07' E 135°01'  
2017-Sep-14 22:35N 34°41' E 134°50'110.0
2017-Sep-14 22:28N 34°41' E 134°48'0 0.1
2017-Sep-14 20:41N 34°41' E 134°48'0 0.0
2017-Sep-14 20:29N 34°41' E 134°48'0 0.0
2017-Sep-14 19:59N 34°41' E 134°48'0 0.0
2017-Sep-14 19:17N 34°41' E 134°48'0 0.0
2017-Sep-14 18:59N 34°41' E 134°48'0 0.0
2017-Sep-14 18:29N 34°41' E 134°48'0 0.0
2017-Sep-14 17:23N 34°41' E 134°48'  

Dump ship's entire track history